Time;durP1;ratioP1;P1;durP2;ratioP2;P2;SDS_P1;SDS_P2;PMS_P1;PMS_P2;Temp;Humidity;BMP_temperature;BMP_pressure;BME280_temperature;BME280_humidity;BME280_pressure;Samples;Min_cycle;Max_cycle;Signal;HPM_P1;HPM_P2
2021/09/21 00:00:31;;;;;;;9.85;6.50;;;;;;;7.00;100.00;102767.88;2637979;36;20022;-76
2021/09/21 00:03:38;;;;;;;11.25;6.93;;;;;;;6.99;100.00;102767.94;2656578;36;20543;-76
2021/09/21 00:06:35;;;;;;;;;;;;;;;;;;;;;
2021/09/21 00:09:37;;;;;;;;;;;;;;;;;;;;;
2021/09/21 00:13:08;;;;;;;;;;;;;;;;;;;;;
2021/09/21 00:16:14;;;;;;;10.82;7.28;;;;;;;6.91;100.00;102773.63;2638465;36;20062;-77
2021/09/21 00:18:56;;;;;;;;;;;;;;;;;;;;;
2021/09/21 00:24:48;;;;;;;;;;;;;;;;;;;;;
2021/09/21 00:32:44;;;;;;;10.10;7.50;;;;;;;6.62;100.00;102778.38;2634936;36;20033;-76
2021/09/21 00:35:28;;;;;;;11.30;7.30;;;;;;;6.48;100.00;102783.44;2639093;36;20073;-76
2021/09/21 00:42:17;;;;;;;10.23;7.40;;;;;;;6.48;100.00;102784.31;2656173;36;20030;-77
2021/09/21 06:46:06;;;;;;;21.83;13.77;;;;;;;8.65;100.00;102944.63;2614301;54;20030;-77
2021/09/21 06:48:38;;;;;;;17.27;13.57;;;;;;;8.66;100.00;102946.38;2634653;36;20034;-77
2021/09/21 13:51:36;;;;;;;3.65;2.20;;;;;;;19.13;100.00;102932.91;2611559;54;19965;-77
2021/09/21 13:54:04;;;;;;;5.38;2.13;;;;;;;19.08;94.43;102936.06;2615156;36;20579;-78
2021/09/21 13:56:33;;;;;;;4.30;1.80;;;;;;;19.40;93.70;102935.78;2615811;36;20114;-77
2021/09/21 13:59:02;;;;;;;3.80;2.13;;;;;;;18.99;92.07;102936.91;2615591;36;20387;-75
2021/09/21 14:01:37;;;;;;;4.65;2.45;;;;;;;18.31;93.49;102934.78;2614710;36;20026;-79
2021/09/21 14:04:06;;;;;;;4.20;1.95;;;;;;;18.49;100.00;102929.53;2615490;36;20054;-75
2021/09/21 14:06:37;;;;;;;4.68;2.33;;;;;;;19.04;100.00;102932.75;2616620;36;20078;-75
2021/09/21 14:09:06;;;;;;;3.90;2.10;;;;;;;18.93;98.12;102938.31;2614657;36;20035;-77
2021/09/21 14:11:34;;;;;;;3.20;1.88;;;;;;;19.06;100.00;102930.72;2616929;36;20563;-81
2021/09/21 14:14:02;;;;;;;5.70;2.58;;;;;;;19.71;97.42;102927.44;2617014;36;20057;-77
2021/09/21 14:16:30;;;;;;;5.68;2.50;;;;;;;19.87;95.81;102928.72;2617257;31;20031;-76
2021/09/21 14:18:59;;;;;;;4.15;2.00;;;;;;;20.04;97.38;102927.97;2616989;36;20090;-76
2021/09/21 14:21:27;;;;;;;3.72;2.85;;;;;;;19.55;96.52;102929.88;2617362;36;20090;-77
2021/09/21 14:23:58;;;;;;;4.03;2.60;;;;;;;19.30;100.00;102926.75;2617627;36;20043;-80
2021/09/21 14:26:26;;;;;;;4.25;2.85;;;;;;;19.71;95.54;102923.81;2617150;36;20052;-78
2021/09/21 14:28:54;;;;;;;4.35;2.47;;;;;;;19.64;94.74;102930.88;2616412;36;20059;-75
2021/09/21 14:31:23;;;;;;;5.13;2.47;;;;;;;19.22;100.00;102935.63;2617101;36;20038;-77
2021/09/21 14:33:51;;;;;;;3.75;2.72;;;;;;;19.22;100.00;102938.34;2617261;36;20059;-76
2021/09/21 14:36:20;;;;;;;5.32;2.95;;;;;;;19.20;97.86;102936.78;2617044;31;20058;-81
2021/09/21 14:38:48;;;;;;;6.47;3.30;;;;;;;18.96;100.00;102934.44;2617543;36;20532;-79
2021/09/21 14:41:19;;;;;;;5.10;3.13;;;;;;;18.76;100.00;102944.41;2617510;36;20035;-76
2021/09/21 14:43:48;;;;;;;4.07;2.65;;;;;;;18.91;100.00;102953.97;2617219;36;20376;-77
2021/09/21 14:46:16;;;;;;;4.70;3.00;;;;;;;19.05;100.00;102958.16;2616274;36;20023;-78
2021/09/21 14:48:45;;;;;;;5.93;3.40;;;;;;;18.70;100.00;102954.03;2617093;36;20022;-82
2021/09/21 14:51:14;;;;;;;5.85;3.00;;;;;;;18.86;100.00;102943.50;2616926;36;20452;-76
2021/09/21 14:53:43;;;;;;;7.85;2.90;;;;;;;19.08;100.00;102952.44;2617187;36;20559;-78
2021/09/21 14:56:12;;;;;;;5.80;3.17;;;;;;;18.98;100.00;102941.50;2613072;36;20559;-79
2021/09/21 14:58:44;;;;;;;;;;;;;;;19.32;100.00;102937.53;2617538;36;20567;-77
2021/09/21 15:01:14;;;;;;;7.43;3.42;;;;;;;19.01;100.00;102930.31;2617337;36;19954;-80
2021/09/21 15:03:43;;;;;;;4.65;3.67;;;;;;;18.83;100.00;102927.38;2617164;36;20030;-76
2021/09/21 15:06:11;;;;;;;5.55;3.58;;;;;;;18.97;100.00;102922.53;2617287;31;20138;-76
2021/09/21 15:08:40;;;;;;;5.95;3.65;;;;;;;19.18;100.00;102923.25;2616643;36;20023;-77
2021/09/21 15:11:11;;;;;;;5.80;3.38;;;;;;;19.11;100.00;102929.44;2617193;36;20090;-76
2021/09/21 15:13:39;;;;;;;8.40;3.67;;;;;;;18.99;100.00;102936.91;2616214;36;20034;-79
2021/09/21 15:16:10;;;;;;;7.80;3.30;;;;;;;18.72;100.00;102931.06;2616543;36;20077;-75
2021/09/21 15:18:39;;;;;;;5.45;3.50;;;;;;;18.82;100.00;102931.09;2618004;36;20086;-75
2021/09/21 15:21:08;;;;;;;4.32;3.05;;;;;;;18.45;100.00;102917.22;2616338;36;20030;-76
2021/09/21 15:23:36;;;;;;;4.97;3.42;;;;;;;18.52;100.00;102919.25;2617393;36;20443;-80
2021/09/21 15:26:06;;;;;;;5.28;3.67;;;;;;;18.55;100.00;102912.63;2616944;36;20034;-79
2021/09/21 15:28:35;;;;;;;6.85;3.83;;;;;;;18.50;100.00;102913.03;2617603;36;20059;-76
2021/09/21 15:31:03;;;;;;;6.30;3.47;;;;;;;18.70;100.00;102913.13;2616953;31;20489;-74
2021/09/21 15:33:34;;;;;;;9.60;4.28;;;;;;;18.80;100.00;102905.81;2616749;36;20034;-77
2021/09/21 15:36:03;;;;;;;6.15;3.90;;;;;;;18.83;100.00;102901.94;2616369;36;20027;-82
2021/09/21 15:38:31;;;;;;;5.95;4.25;;;;;;;18.83;100.00;102907.38;2616873;36;20054;-77
2021/09/21 15:41:00;;;;;;;9.23;4.45;;;;;;;18.89;100.00;102902.28;2616858;36;20035;-77
2021/09/21 15:43:29;;;;;;;7.78;4.25;;;;;;;18.72;100.00;102900.19;2614645;36;20069;-78
2021/09/21 15:45:58;;;;;;;6.43;4.45;;;;;;;18.43;100.00;102895.50;2616912;36;20022;-77
2021/09/21 15:48:27;;;;;;;10.98;4.00;;;;;;;18.28;100.00;102905.06;2613297;36;20134;-79
2021/09/21 15:50:58;;;;;;;7.00;4.13;;;;;;;18.20;100.00;102893.00;2616659;36;20464;-78
2021/09/21 15:53:27;;;;;;;7.45;3.80;;;;;;;18.34;100.00;102899.94;2616868;31;20598;-76
2021/09/21 15:55:56;;;;;;;5.38;3.95;;;;;;;18.33;100.00;102900.94;2616775;36;20022;-76
2021/09/21 15:58:24;;;;;;;8.07;4.75;;;;;;;18.16;100.00;102902.44;2616423;36;20078;-77
2021/09/21 16:00:53;;;;;;;5.35;4.05;;;;;;;18.24;100.00;102898.16;2616397;36;20026;-80
2021/09/21 16:03:22;;;;;;;6.50;4.10;;;;;;;18.27;100.00;102897.88;2616793;36;20046;-79
2021/09/21 16:05:50;;;;;;;9.05;4.07;;;;;;;18.10;100.00;102897.53;2616424;36;20031;-77
2021/09/21 16:08:21;;;;;;;6.38;3.75;;;;;;;18.07;100.00;102899.69;2613228;36;20460;-75
2021/09/21 16:10:50;;;;;;;6.82;4.03;;;;;;;18.22;100.00;102909.22;2616708;36;20060;-77
2021/09/21 16:13:20;;;;;;;;;;;;;;;18.22;100.00;102911.94;2616787;36;20439;-82
2021/09/21 16:15:55;;;;;;;7.15;4.47;;;;;;;18.14;100.00;102909.91;2615823;36;20428;-76
2021/09/21 16:18:24;;;;;;;5.95;4.25;;;;;;;18.08;100.00;102913.19;2616403;36;20030;-77
2021/09/21 16:21:33;;;;;;;6.70;4.30;;;;;;;18.07;100.00;102908.72;2634909;36;20037;-78
2021/09/21 16:38:05;;;;;;;7.60;4.28;;;;;;;17.56;100.00;102901.34;2616257;54;20113;-83
2021/09/21 16:40:36;;;;;;;6.70;4.50;;;;;;;17.52;100.00;102903.47;2617085;31;20027;-75
2021/09/21 16:43:07;;;;;;;5.47;3.80;;;;;;;17.43;100.00;102902.41;2616540;36;20026;-77
2021/09/21 16:45:36;;;;;;;6.85;3.83;;;;;;;17.25;100.00;102909.41;2616487;36;20034;-76
2021/09/21 16:48:09;;;;;;;4.93;3.78;;;;;;;17.05;100.00;102914.69;2616152;36;20051;-85
2021/09/21 16:50:50;;;;;;;5.75;4.35;;;;;;;17.04;100.00;102915.66;2615295;36;20049;-77
2021/09/21 16:53:21;;;;;;;6.28;4.03;;;;;;;16.86;100.00;102917.16;2616356;36;20019;-76
2021/09/21 16:56:14;;;;;;;6.70;4.38;;;;;;;16.57;100.00;102902.25;2634708;36;20150;-75
2021/09/21 16:58:42;;;;;;;6.90;4.13;;;;;;;16.44;100.00;102916.00;2616043;36;20043;-77
2021/09/21 17:01:14;;;;;;;6.95;3.72;;;;;;;16.41;100.00;102916.22;2616975;36;20030;-73
2021/09/21 17:03:45;;;;;;;10.95;4.78;;;;;;;16.38;100.00;102921.91;2616279;36;20057;-75
2021/09/21 17:06:16;;;;;;;6.78;4.38;;;;;;;16.21;100.00;102933.25;2616408;36;20552;-81
2021/09/21 17:08:47;;;;;;;8.32;4.10;;;;;;;15.98;100.00;102932.41;2615886;36;20037;-77
2021/09/21 17:11:15;;;;;;;7.22;4.80;;;;;;;15.92;100.00;102933.75;2616564;36;20026;-75
2021/09/21 17:13:45;;;;;;;7.40;4.53;;;;;;;15.84;100.00;102942.50;2616189;36;20552;-75
2021/09/21 17:16:18;;;;;;;6.65;4.20;;;;;;;15.76;100.00;102945.75;2616050;36;20038;-82
2021/09/21 17:18:47;;;;;;;10.10;5.93;;;;;;;15.67;100.00;102941.03;2616929;36;20424;-76
2021/09/21 17:21:15;;;;;;;8.82;5.03;;;;;;;15.54;100.00;102957.41;2616176;36;20023;-78
2021/09/21 17:23:54;;;;;;;9.60;5.40;;;;;;;15.41;100.00;102952.06;2615897;36;20035;-76
2021/09/21 17:26:25;;;;;;;8.95;5.45;;;;;;;15.24;100.00;102966.03;2616374;31;20302;-85
2021/09/21 17:28:58;;;;;;;11.60;6.22;;;;;;;15.09;100.00;102965.34;2616766;36;20424;-77
2021/09/21 17:31:30;;;;;;;8.02;5.60;;;;;;;15.05;100.00;102961.97;2616136;36;20031;-76
2021/09/21 17:34:04;;;;;;;7.82;5.25;;;;;;;15.00;100.00;102964.19;2614595;36;20031;-76
2021/09/21 17:36:33;;;;;;;7.50;5.80;;;;;;;14.84;100.00;102966.25;2633610;36;20076;-76
2021/09/21 17:39:04;;;;;;;12.00;6.35;;;;;;;14.76;100.00;102974.09;2616376;36;20137;-75
2021/09/21 17:41:33;;;;;;;13.10;6.85;;;;;;;14.73;100.00;102971.63;2617300;36;20034;-76
2021/09/21 17:44:01;;;;;;;8.88;7.32;;;;;;;14.67;100.00;102983.78;2616203;36;20057;-75
2021/09/21 17:46:30;;;;;;;9.43;7.13;;;;;;;14.69;100.00;102984.50;2616794;36;20025;-76
2021/09/21 17:48:58;;;;;;;14.63;8.85;;;;;;;14.58;100.00;102987.13;2617595;36;20327;-76
2021/09/21 17:51:26;;;;;;;11.85;8.10;;;;;;;14.56;100.00;102979.09;2616572;36;20472;-75
2021/09/21 18:25:16;;;;;;;13.52;8.20;;;;;;;13.69;100.00;102991.47;2610073;39;20604;-76
2021/09/21 18:27:47;;;;;;;11.57;7.47;;;;;;;13.65;100.00;103005.22;2609962;36;20045;-76
2021/09/21 18:30:30;;;;;;;;;;;;;;;;;;;;;
2021/09/21 18:36:18;;;;;;;;;;;;;;;;;;;;;
2021/09/21 18:39:17;;;;;;;13.10;6.65;;;;;;;13.53;100.00;103000.66;2644652;36;20966;-76
2021/09/21 18:42:02;;;;;;;10.65;6.82;;;;;;;13.47;100.00;102999.22;2627453;36;20486;-76
2021/09/21 18:44:34;;;;;;;9.00;6.93;;;;;;;13.43;100.00;102994.13;2644603;36;20038;-77
2021/09/21 18:47:13;;;;;;;;;;;;;;;;;;;;;
2021/09/21 18:49:52;;;;;;;11.75;7.28;;;;;;;13.35;100.00;102993.75;2627142;36;20038;-76
2021/09/21 18:52:33;;;;;;;9.25;7.35;;;;;;;13.29;100.00;102997.69;2627358;36;20026;-77
2021/09/21 18:55:14;;;;;;;11.73;8.13;;;;;;;13.20;100.00;103003.72;2626226;36;20159;-76
2021/09/21 18:58:37;;;;;;;13.60;9.15;;;;;;;13.11;100.00;103002.47;2627445;36;20038;-76
2021/09/21 19:01:26;;;;;;;12.70;9.88;;;;;;;13.03;100.00;103011.09;2613154;31;20531;-76
2021/09/21 19:04:08;;;;;;;14.05;10.30;;;;;;;12.97;100.00;103019.59;2610800;36;20112;-76
2021/09/21 19:06:47;;;;;;;13.07;9.57;;;;;;;12.97;100.00;103025.00;2628837;31;20026;-76
2021/09/21 19:09:21;;;;;;;12.55;9.23;;;;;;;12.88;100.00;103023.78;2606363;36;20038;-78
2021/09/21 19:11:57;;;;;;;13.10;9.30;;;;;;;12.87;100.00;103026.56;2621595;36;20447;-79
2021/09/21 19:14:25;;;;;;;13.55;9.00;;;;;;;12.87;100.00;103026.56;2603067;36;20544;-78
2021/09/21 19:16:56;;;;;;;16.77;9.60;;;;;;;12.81;100.00;103019.72;2599870;36;20042;-75
2021/09/21 19:19:24;;;;;;;13.45;9.60;;;;;;;12.76;100.00;103019.13;2601684;31;20142;-76
2021/09/21 19:21:53;;;;;;;17.48;10.18;;;;;;;12.73;100.00;103030.13;2603904;36;20162;-78
2021/09/21 19:24:21;;;;;;;13.00;9.60;;;;;;;12.69;100.00;103024.06;2602756;36;20064;-78
2021/09/21 19:26:49;;;;;;;11.80;8.98;;;;;;;12.69;100.00;103021.38;2601012;36;20034;-79
2021/09/21 19:29:18;;;;;;;13.73;9.93;;;;;;;12.69;100.00;103023.19;2602780;36;20815;-76
2021/09/21 19:31:46;;;;;;;14.38;10.30;;;;;;;12.59;100.00;103029.16;2602126;36;20217;-79
2021/09/21 19:34:17;;;;;;;14.02;10.43;;;;;;;12.65;100.00;103025.22;2602972;36;21566;-76
2021/09/21 19:36:47;;;;;;;15.95;10.55;;;;;;;12.59;100.00;103029.16;2602703;36;20042;-78
2021/09/21 19:39:16;;;;;;;14.30;11.05;;;;;;;12.55;100.00;103032.16;2603082;36;20023;-75
2021/09/21 19:41:44;;;;;;;15.57;11.65;;;;;;;12.56;100.00;103034.75;2598897;36;20030;-76
2021/09/21 19:44:13;;;;;;;16.93;11.80;;;;;;;12.47;100.00;103046.16;2600178;36;20543;-76
2021/09/21 19:46:41;;;;;;;15.18;11.80;;;;;;;12.42;100.00;103046.41;2599359;36;20065;-76
2021/09/21 19:49:10;;;;;;;17.55;12.48;;;;;;;12.40;100.00;103050.19;2602764;36;20188;-75
2021/09/21 19:51:41;;;;;;;14.30;12.00;;;;;;;12.36;100.00;103048.63;2606544;36;20451;-76
2021/09/21 19:54:10;;;;;;;17.40;12.43;;;;;;;12.34;100.00;103047.88;2606139;36;20030;-75
2021/09/21 19:56:38;;;;;;;18.77;13.73;;;;;;;12.23;100.00;103041.28;2602861;31;20050;-76
2021/09/21 19:59:06;;;;;;;15.10;11.98;;;;;;;12.26;100.00;103049.22;2603521;36;20069;-76
2021/09/21 20:01:35;;;;;;;16.65;11.82;;;;;;;12.27;100.00;103053.63;2609606;36;20262;-77
2021/09/21 20:04:04;;;;;;;13.90;12.27;;;;;;;12.23;100.00;103057.50;2606061;36;20022;-76
2021/09/21 20:06:33;;;;;;;17.83;12.80;;;;;;;12.16;100.00;103066.03;2600043;36;20081;-76
2021/09/21 20:09:03;;;;;;;18.67;12.73;;;;;;;12.11;100.00;103069.00;2605853;36;20574;-77
2021/09/21 20:11:32;;;;;;;17.42;13.18;;;;;;;12.07;100.00;103068.34;2602687;36;20447;-80
2021/09/21 20:14:02;;;;;;;23.83;13.93;;;;;;;12.06;100.00;103071.13;2599526;36;20031;-76
2021/09/21 20:16:31;;;;;;;20.33;13.93;;;;;;;12.06;100.00;103058.50;2605111;36;20535;-76
2021/09/21 20:19:07;;;;;;;18.17;13.43;;;;;;;12.05;100.00;103061.28;2604692;36;20630;-76
2021/09/21 20:21:36;;;;;;;18.63;14.82;;;;;;;11.98;100.00;103070.72;2606361;31;20491;-77
